José Martí International Airport
MUHA : now visible

Airfield :











YOU CAN JOIN US ON...

 
LOGIN :

Register | Disclaimer

   EN    FR    IT 

 









Legend :    VFR   Marginal VFR   IFR   Intensive IFR   Very Intensive IFR
Visi :
Ceiling :
>= 8 km
>= 3000ft
5 to 8 km
1000 to 3000 ft
1500m to 5 km
500 to 1000 ft
800 to 1500m
200 to 500 ft
< 800m
< 200 ft
Symbols :   Thunderstorms  Fog  Heavy snow  Heavy precipitations  Wind > 20 kt






- Airport Elevation : 210 ft
- IATA code : HAV


MUHA - José Martí International

CURRENT METAR :
  • 110355Z 00000KT 8000 SKC 19/19 Q1019

EXPIRED METARs :
  • 110255Z VRB02KT 9000 FEW040 21/21 Q1019
  • 110155Z 11002KT 9000 FEW040 21/21 Q1019

TAF MUHA
Valid from the 11 at 00:00 until the 12 at 00:00 UTC


102300Z 1100/1124 VRB03KT 9000 FEW030
TEMPO 1107/1112 5000 BR
BECMG 1115/1117 06010KT



MET'MAP, your aeronautical weather chart ! - Copyright ORBIFLY December 2007 - Disclaimer

ORBIFLY MET'MAP TEAM :

Programming & Development : Alexandra Zaïnal
Concept & original design : Baudouin d'Aumeries
Assistance for programming : Marc-Olivier Méhu
Technical & hardware support : Manuel Goepfert

Contact : metmap@orbifly.com




SOURCES & CREDITS :

   NOAA       Earth
Advisory